createdAt,value
2023-09-06T00:03:19.693Z,3.40
2023-09-06T00:08:22.398Z,3.90
2023-09-06T00:13:25.024Z,5.72
2023-09-06T00:18:29.092Z,4.20
2023-09-06T00:23:32.504Z,3.78
2023-09-06T00:28:35.319Z,3.65
2023-09-06T00:33:38.019Z,3.40
2023-09-06T00:38:40.785Z,3.45
2023-09-06T00:43:43.527Z,13.40
2023-09-06T00:48:53.255Z,17.38
2023-09-06T00:53:56.308Z,17.13
2023-09-06T00:59:02.385Z,9.98
2023-09-06T01:04:05.486Z,4.32
2023-09-06T01:09:08.527Z,4.65
2023-09-06T01:14:11.389Z,2.25
2023-09-06T01:19:16.419Z,4.90
2023-09-06T01:24:19.377Z,5.47
2023-09-06T01:29:24.196Z,6.05
2023-09-06T01:34:27.307Z,7.72
2023-09-06T01:39:30.395Z,5.28
2023-09-06T01:44:33.545Z,4.32
2023-09-06T01:49:36.282Z,3.15
2023-09-06T01:54:38.898Z,1.73
2023-09-06T01:59:41.555Z,4.47
2023-09-06T02:04:44.679Z,2.97
2023-09-06T02:09:47.316Z,2.88
2023-09-06T02:14:57.384Z,4.05
2023-09-06T02:20:07.473Z,8.80
2023-09-06T02:25:16.320Z,4.35
2023-09-06T02:30:19.423Z,3.33
2023-09-06T02:35:22.214Z,6.05
2023-09-06T02:40:24.805Z,6.35
2023-09-06T02:45:38.034Z,6.05
2023-09-06T02:50:46.273Z,8.70
2023-09-06T02:55:54.507Z,4.93
2023-09-06T03:00:59.656Z,9.98
2023-09-06T03:06:06.471Z,5.57
2023-09-06T03:11:17.438Z,3.60
2023-09-06T03:16:24.459Z,2.60
2023-09-06T03:21:27.087Z,1.88
2023-09-06T03:26:29.679Z,4.22
2023-09-06T03:31:41.045Z,5.43
2023-09-06T03:36:47.473Z,4.70
2023-09-06T03:41:50.219Z,4.63
2023-09-06T03:46:53.455Z,7.55
2023-09-06T03:51:56.939Z,3.28
2023-09-06T03:57:02.196Z,3.28
2023-09-06T04:02:08.888Z,2.58
2023-09-06T04:07:11.609Z,5.43
2023-09-06T04:12:16.546Z,5.70
2023-09-06T04:17:22.204Z,3.33
2023-09-06T04:22:25.123Z,9.20
2023-09-06T04:27:27.916Z,5.95
2023-09-06T04:32:30.778Z,3.88
2023-09-06T04:37:33.640Z,5.05
2023-09-06T04:42:36.574Z,4.38
2023-09-06T04:47:45.136Z,3.35
2023-09-06T04:52:52.011Z,7.15
2023-09-06T04:57:56.206Z,9.73
2023-09-06T05:03:00.344Z,7.25
2023-09-06T05:08:04.496Z,5.75
2023-09-06T05:13:13.355Z,4.60
2023-09-06T05:18:18.545Z,4.25
2023-09-06T05:23:22.105Z,4.53
2023-09-06T05:28:26.094Z,2.05
2023-09-06T05:33:37.038Z,4.63
2023-09-06T05:38:39.916Z,4.85
2023-09-06T05:43:43.231Z,2.60
2023-09-06T05:48:46.466Z,3.58
2023-09-06T05:53:49.268Z,2.58
2023-09-06T05:58:54.750Z,7.93
2023-09-06T06:03:57.441Z,7.13
2023-09-06T06:09:00.048Z,2.38
2023-09-06T06:14:10.445Z,0.85
2023-09-06T06:19:14.597Z,4.43
2023-09-06T06:24:17.464Z,3.58
2023-09-06T06:29:20.183Z,2.47
2023-09-06T06:34:22.874Z,6.57
2023-09-06T06:39:25.743Z,2.47
2023-09-06T06:44:29.479Z,3.92
2023-09-06T06:49:33.527Z,4.03
2023-09-06T06:54:40.509Z,6.28
2023-09-06T06:59:43.123Z,4.35
2023-09-06T07:04:45.753Z,2.55
2023-09-06T07:09:48.451Z,3.40
2023-09-06T07:14:52.362Z,2.58
2023-09-06T07:19:56.101Z,6.38
2023-09-06T07:25:00.333Z,2.75
2023-09-06T07:30:04.524Z,5.33
2023-09-06T07:35:08.086Z,1.00
2023-09-06T07:40:12.509Z,2.17
2023-09-06T07:45:16.096Z,2.65
2023-09-06T07:50:20.530Z,5.03
2023-09-06T07:55:24.767Z,4.95
2023-09-06T08:00:30.202Z,2.47
2023-09-06T08:05:34.944Z,1.95
2023-09-06T08:10:39.668Z,0.68
2023-09-06T08:15:45.664Z,3.42
2023-09-06T08:20:49.305Z,4.72
2023-09-06T08:25:53.410Z,5.13
2023-09-06T08:30:58.389Z,3.45
2023-09-06T08:41:10.336Z,6.05
2023-09-06T08:46:23.829Z,2.88
2023-09-06T08:51:33.717Z,7.70
2023-09-06T08:56:37.922Z,1.60
2023-09-06T09:01:41.379Z,6.72
2023-09-06T09:06:45.763Z,1.65
2023-09-06T09:11:54.539Z,2.97
2023-09-06T09:17:01.314Z,1.85
2023-09-06T09:22:09.487Z,5.50
2023-09-06T09:27:12.785Z,3.38
2023-09-06T09:32:16.969Z,1.50
2023-09-06T09:37:23.963Z,5.50
2023-09-06T09:42:28.336Z,5.80
2023-09-06T09:47:52.438Z,4.63
2023-09-06T09:53:02.682Z,4.07
2023-09-06T09:58:14.609Z,5.35
2023-09-06T10:03:20.333Z,3.35
2023-09-06T10:08:24.421Z,1.80
2023-09-06T10:13:29.350Z,4.68
2023-09-06T10:18:34.203Z,4.22
2023-09-06T10:23:44.806Z,2.17
2023-09-06T10:29:01.627Z,4.80
2023-09-06T10:34:05.868Z,4.00
2023-09-06T10:39:15.976Z,3.53
2023-09-06T10:44:19.466Z,5.03
2023-09-06T10:49:29.295Z,3.35
2023-09-06T10:54:39.814Z,2.75
2023-09-06T10:59:47.443Z,4.80
2023-09-06T11:05:20.749Z,1.77
2023-09-06T11:10:25.104Z,2.25
2023-09-06T11:15:29.540Z,4.07
2023-09-06T11:20:35.296Z,2.00
2023-09-06T11:25:39.718Z,2.75
2023-09-06T11:30:45.987Z,1.65
2023-09-06T11:36:00.571Z,1.80
2023-09-06T11:41:07.132Z,2.17
2023-09-06T11:46:13.462Z,2.38
2023-09-06T11:51:20.228Z,2.63
2023-09-06T11:56:37.777Z,9.27
2023-09-06T12:01:42.436Z,5.30
2023-09-06T12:06:46.764Z,7.43
2023-09-06T12:11:51.838Z,4.65
2023-09-06T12:16:58.098Z,2.35
2023-09-06T12:22:02.877Z,3.80
2023-09-06T12:32:13.037Z,0.65
2023-09-06T12:37:19.304Z,1.80
2023-09-06T12:42:23.028Z,4.00
2023-09-06T12:47:27.456Z,2.60
2023-09-06T12:52:30.939Z,3.38
2023-09-06T12:57:33.446Z,5.35
2023-09-06T13:02:36.120Z,1.13
2023-09-06T13:07:39.547Z,3.50
2023-09-06T13:12:43.656Z,2.67
2023-09-06T13:17:46.357Z,8.60
2023-09-06T13:22:49.060Z,3.47
2023-09-06T13:27:51.662Z,3.40
2023-09-06T13:32:54.257Z,2.78
2023-09-06T13:37:58.127Z,3.97
2023-09-06T13:43:03.354Z,2.90
2023-09-06T13:48:06.556Z,1.95
2023-09-06T13:53:09.215Z,1.20
2023-09-06T13:58:12.996Z,1.48
2023-09-06T14:03:15.985Z,2.97
2023-09-06T14:08:20.615Z,3.28
2023-09-06T14:13:25.249Z,2.33
2023-09-06T14:18:28.677Z,3.13
2023-09-06T14:23:31.864Z,3.15
2023-09-06T14:28:34.807Z,2.03
2023-09-06T14:33:39.158Z,0.90
2023-09-06T14:38:41.865Z,4.05
2023-09-06T14:43:45.673Z,6.47
2023-09-06T14:48:48.386Z,2.23
2023-09-06T14:53:52.011Z,4.78
2023-09-06T14:58:55.958Z,2.50
2023-09-06T15:03:58.721Z,6.50
2023-09-06T15:09:01.505Z,2.88
2023-09-06T15:14:06.150Z,5.30
2023-09-06T15:19:08.993Z,1.02
2023-09-06T15:24:14.354Z,5.45
2023-09-06T15:29:18.286Z,3.83
2023-09-06T15:34:28.539Z,2.13
2023-09-06T15:39:44.897Z,1.20
2023-09-06T15:44:47.626Z,2.13
2023-09-06T15:49:52.702Z,3.80
2023-09-06T15:54:55.361Z,1.20
2023-09-06T15:59:59.466Z,5.55
2023-09-06T16:10:10.732Z,6.78
2023-09-06T16:15:14.257Z,4.05
2023-09-06T16:20:17.058Z,2.67
2023-09-06T16:25:19.915Z,1.55
2023-09-06T16:30:22.714Z,4.30
2023-09-06T16:35:25.395Z,4.05
2023-09-06T16:40:28.435Z,5.78
2023-09-06T16:45:31.064Z,2.40
2023-09-06T16:50:33.727Z,6.72
2023-09-06T16:55:36.413Z,8.07
2023-09-06T17:00:42.007Z,2.85
2023-09-06T17:05:47.755Z,6.13
2023-09-06T17:10:50.671Z,5.57
2023-09-06T17:15:53.333Z,2.38
2023-09-06T17:20:56.184Z,5.63
2023-09-06T17:25:59.015Z,4.38
2023-09-06T17:31:02.614Z,6.43
2023-09-06T17:36:08.935Z,9.55
2023-09-06T17:41:11.859Z,5.57
2023-09-06T17:46:15.042Z,8.40
2023-09-06T17:51:17.844Z,12.95
2023-09-06T17:56:25.353Z,11.57
2023-09-06T18:01:31.180Z,18.23
2023-09-06T18:06:33.941Z,35.60
2023-09-06T18:11:37.307Z,22.17
2023-09-06T18:16:43.357Z,22.88
2023-09-06T18:21:46.379Z,21.48
2023-09-06T18:27:06.010Z,21.88
2023-09-06T18:32:10.473Z,33.67
2023-09-06T18:37:13.053Z,23.40
2023-09-06T18:42:15.715Z,18.30
2023-09-06T18:47:19.865Z,13.30
2023-09-06T18:52:24.190Z,14.53
2023-09-06T18:57:26.799Z,8.50
2023-09-06T19:02:29.439Z,9.95
2023-09-06T19:07:32.131Z,14.95
2023-09-06T19:12:37.267Z,38.58
2023-09-06T19:17:40.326Z,17.20
2023-09-06T19:22:44.072Z,8.07
2023-09-06T19:27:47.081Z,6.47
2023-09-06T19:32:49.832Z,12.98
2023-09-06T19:37:52.613Z,6.13
2023-09-06T19:42:55.802Z,7.95
2023-09-06T19:48:04.478Z,5.05
2023-09-06T19:53:07.138Z,6.35
2023-09-06T19:58:11.801Z,6.68
2023-09-06T20:03:14.782Z,7.32
2023-09-06T20:08:17.597Z,5.15
2023-09-06T20:13:21.732Z,6.00
2023-09-06T20:18:24.668Z,5.20
2023-09-06T20:23:31.743Z,3.88
2023-09-06T20:28:34.412Z,7.43
2023-09-06T20:33:38.075Z,4.55
2023-09-06T20:38:40.714Z,4.22
2023-09-06T20:43:43.304Z,2.63
2023-09-06T20:48:47.252Z,9.23
2023-09-06T20:53:50.462Z,5.13
2023-09-06T20:58:53.058Z,6.32
2023-09-06T21:03:55.641Z,3.30
2023-09-06T21:09:00.603Z,4.55
2023-09-06T21:19:06.768Z,7.00
2023-09-06T21:24:11.062Z,5.97
2023-09-06T21:29:27.362Z,12.52
2023-09-06T21:34:33.626Z,4.35
2023-09-06T21:39:36.331Z,13.05
2023-09-06T21:44:39.926Z,4.15
2023-09-06T21:49:42.767Z,3.08
2023-09-06T21:54:45.367Z,7.82
2023-09-06T21:59:48.076Z,3.17
2023-09-06T22:04:50.679Z,4.80
2023-09-06T22:10:12.207Z,3.08
2023-09-06T22:15:33.408Z,3.75
2023-09-06T22:20:41.481Z,6.90
2023-09-06T22:25:44.669Z,4.40
2023-09-06T22:30:47.396Z,5.82
2023-09-06T22:35:50.545Z,5.30
2023-09-06T22:40:53.116Z,3.40
2023-09-06T22:45:55.670Z,4.07
2023-09-06T22:50:58.237Z,3.75
2023-09-06T22:56:00.722Z,3.28
2023-09-06T23:01:07.918Z,6.47
2023-09-06T23:06:13.701Z,3.92
2023-09-06T23:11:16.987Z,5.03
2023-09-06T23:16:20.080Z,5.20
2023-09-06T23:21:25.540Z,5.70
2023-09-06T23:26:32.632Z,6.47
2023-09-06T23:31:38.372Z,2.75
2023-09-06T23:36:41.059Z,4.38
2023-09-06T23:41:44.327Z,2.88
2023-09-06T23:46:49.177Z,3.20
2023-09-06T23:51:51.803Z,2.67
2023-09-06T23:56:54.508Z,4.85
